createdAt,value
2018-09-06T00:02:12.158Z,91.68
2018-09-06T00:04:39.263Z,91.92
2018-09-06T00:07:06.537Z,92.15
2018-09-06T00:09:33.643Z,92.83
2018-09-06T00:12:00.740Z,92.56
2018-09-06T00:14:27.969Z,92.83
2018-09-06T00:16:55.174Z,93.50
2018-09-06T00:19:22.403Z,93.91
2018-09-06T00:21:49.575Z,93.83
2018-09-06T00:24:16.709Z,93.99
2018-09-06T00:26:43.979Z,94.11
2018-09-06T00:29:11.134Z,94.49
2018-09-06T00:31:38.398Z,93.96
2018-09-06T00:34:05.816Z,93.42
2018-09-06T00:36:32.943Z,93.80
2018-09-06T00:39:00.112Z,93.54
2018-09-06T00:41:27.214Z,93.81
2018-09-06T00:43:54.506Z,93.46
2018-09-06T00:46:21.637Z,94.28
2018-09-06T00:48:48.761Z,93.98
2018-09-06T00:51:16.065Z,93.90
2018-09-06T00:53:43.165Z,93.95
2018-09-06T00:56:10.413Z,94.74
2018-09-06T00:58:37.753Z,94.60
2018-09-06T01:01:11.982Z,94.61
2018-09-06T01:03:39.235Z,94.37
2018-09-06T01:06:06.683Z,94.68
2018-09-06T01:08:33.948Z,95.47
2018-09-06T01:11:01.092Z,95.37
2018-09-06T01:13:28.253Z,95.31
2018-09-06T01:15:55.475Z,95.66
2018-09-06T01:18:22.680Z,95.98
2018-09-06T01:20:49.979Z,95.81
2018-09-06T01:23:20.395Z,96.05
2018-09-06T01:25:48.046Z,96.39
2018-09-06T01:28:16.378Z,96.14
2018-09-06T01:30:43.503Z,96.58
2018-09-06T01:33:10.853Z,97.38
2018-09-06T01:35:42.535Z,97.23
2018-09-06T01:38:09.623Z,97.43
2018-09-06T01:40:36.897Z,97.72
2018-09-06T01:43:04.037Z,97.34
2018-09-06T01:45:31.365Z,97.15
2018-09-06T01:47:58.515Z,97.11
2018-09-06T01:50:27.682Z,97.49
2018-09-06T01:52:54.870Z,97.07
2018-09-06T01:55:22.093Z,97.28
2018-09-06T01:57:49.320Z,97.59
2018-09-06T02:00:16.434Z,97.82
2018-09-06T02:02:43.615Z,97.52
2018-09-06T02:05:14.613Z,97.33
2018-09-06T02:07:41.723Z,97.56
2018-09-06T02:10:08.967Z,98.14
2018-09-06T02:12:36.075Z,98.02
2018-09-06T02:15:03.235Z,98.19
2018-09-06T02:17:30.443Z,98.46
2018-09-06T02:19:57.578Z,98.35
2018-09-06T02:22:26.889Z,98.40
2018-09-06T02:24:54.053Z,98.63
2018-09-06T02:27:21.175Z,99.27
2018-09-06T02:29:48.478Z,99.26
2018-09-06T02:32:15.629Z,98.78
2018-09-06T02:34:42.870Z,98.97
2018-09-06T02:37:09.994Z,99.28
2018-09-06T02:39:37.151Z,98.89
2018-09-06T02:42:04.419Z,99.74
2018-09-06T02:44:31.535Z,100.00
2018-09-06T02:46:58.832Z,100.00
2018-09-06T02:49:31.628Z,100.00
2018-09-06T02:51:58.772Z,100.00
2018-09-06T02:54:26.037Z,100.00
2018-09-06T02:56:53.145Z,100.00
2018-09-06T02:59:20.468Z,100.00
2018-09-06T03:02:00.374Z,100.00
2018-09-06T03:04:27.584Z,100.00
2018-09-06T03:06:54.788Z,99.98
2018-09-06T03:09:22.720Z,99.72
2018-09-06T03:11:55.893Z,99.70
2018-09-06T03:14:23.032Z,99.79
2018-09-06T03:16:50.199Z,99.56
2018-09-06T03:19:17.444Z,99.42
2018-09-06T03:21:44.689Z,99.09
2018-09-06T03:24:11.807Z,99.62
2018-09-06T03:26:38.961Z,98.85
2018-09-06T03:29:06.190Z,98.84
2018-09-06T03:31:33.322Z,98.54
2018-09-06T03:34:00.604Z,99.32
2018-09-06T03:36:27.746Z,99.25
2018-09-06T03:38:54.848Z,98.78
2018-09-06T03:41:22.092Z,98.81
2018-09-06T03:43:49.324Z,98.40
2018-09-06T03:46:16.719Z,98.92
2018-09-06T03:48:43.860Z,98.37
2018-09-06T03:51:10.967Z,98.63
2018-09-06T03:53:38.167Z,99.16
2018-09-06T03:56:05.409Z,99.22
2018-09-06T03:58:32.703Z,99.02
2018-09-06T04:00:59.935Z,98.70
2018-09-06T04:03:27.115Z,98.95
2018-09-06T04:05:54.275Z,99.06
2018-09-06T04:08:21.388Z,98.80
2018-09-06T04:10:48.652Z,99.37
2018-09-06T04:13:15.753Z,100.00
2018-09-06T04:15:42.849Z,99.62
2018-09-06T04:18:10.168Z,99.69
2018-09-06T04:20:37.290Z,99.53
2018-09-06T04:23:04.556Z,99.28
2018-09-06T04:25:31.740Z,99.64
2018-09-06T04:27:58.837Z,99.75
2018-09-06T04:30:25.985Z,99.45
2018-09-06T04:32:53.111Z,100.00
2018-09-06T04:35:20.379Z,100.00
2018-09-06T04:37:47.451Z,100.00
2018-09-06T04:40:14.667Z,100.00
2018-09-06T04:42:41.845Z,100.00
2018-09-06T04:45:08.980Z,100.00
2018-09-06T04:47:36.272Z,100.00
2018-09-06T04:50:03.448Z,100.00
2018-09-06T04:52:30.605Z,100.00
2018-09-06T04:54:58.234Z,100.00
2018-09-06T04:57:25.703Z,100.00
2018-09-06T04:59:52.987Z,100.00
2018-09-06T05:02:20.632Z,100.00
2018-09-06T05:04:47.759Z,100.00
2018-09-06T05:07:14.907Z,100.00
2018-09-06T05:09:42.076Z,100.00
2018-09-06T05:12:09.577Z,100.00
2018-09-06T05:14:36.739Z,100.00
2018-09-06T05:17:03.947Z,100.00
2018-09-06T05:19:31.244Z,99.91
2018-09-06T05:21:58.401Z,99.66
2018-09-06T05:24:25.661Z,98.91
2018-09-06T05:26:52.831Z,98.27
2018-09-06T05:29:19.927Z,97.00
2018-09-06T05:31:47.169Z,96.74
2018-09-06T05:34:14.303Z,95.83
2018-09-06T05:36:41.535Z,95.00
2018-09-06T05:39:10.159Z,94.97
2018-09-06T05:41:37.697Z,94.42
2018-09-06T05:44:05.052Z,94.15
2018-09-06T05:46:33.292Z,92.84
2018-09-06T05:49:00.639Z,92.18
2018-09-06T05:51:27.782Z,91.11
2018-09-06T05:53:54.972Z,90.51
2018-09-06T05:56:22.167Z,90.02
2018-09-06T05:58:49.298Z,89.96
2018-09-06T06:01:16.617Z,90.10
2018-09-06T06:03:44.430Z,89.54
2018-09-06T06:06:11.539Z,89.89
2018-09-06T06:08:41.056Z,89.79
2018-09-06T06:11:08.232Z,89.82
2018-09-06T06:13:35.494Z,89.85
2018-09-06T06:16:02.782Z,90.56
2018-09-06T06:18:29.823Z,89.71
2018-09-06T06:20:57.038Z,89.67
2018-09-06T06:23:24.305Z,89.94
2018-09-06T06:25:51.578Z,89.88
2018-09-06T06:28:18.771Z,89.99
2018-09-06T06:30:45.932Z,89.14
2018-09-06T06:33:13.116Z,89.25
2018-09-06T06:35:40.264Z,88.53
2018-09-06T06:38:07.578Z,89.50
2018-09-06T06:40:34.713Z,89.24
2018-09-06T06:43:01.828Z,88.01
2018-09-06T06:45:29.063Z,87.91
2018-09-06T06:47:56.196Z,86.96
2018-09-06T06:50:23.581Z,86.56
2018-09-06T06:52:50.725Z,86.27
2018-09-06T06:55:17.879Z,86.01
2018-09-06T06:57:45.090Z,85.84
2018-09-06T07:00:12.380Z,84.62
2018-09-06T07:02:39.609Z,84.28
2018-09-06T07:05:06.741Z,82.82
2018-09-06T07:07:33.940Z,82.24
2018-09-06T07:10:01.180Z,82.42
2018-09-06T07:12:28.264Z,81.93
2018-09-06T07:14:55.539Z,82.39
2018-09-06T07:17:22.652Z,81.75
2018-09-06T07:19:49.868Z,80.73
2018-09-06T07:22:17.102Z,80.95
2018-09-06T07:24:44.329Z,80.39
2018-09-06T07:27:11.563Z,79.62
2018-09-06T07:29:38.726Z,78.78
2018-09-06T07:32:05.936Z,78.58
2018-09-06T07:34:33.103Z,77.38
2018-09-06T07:37:00.268Z,76.21
2018-09-06T07:39:27.535Z,74.54
2018-09-06T07:41:54.648Z,74.54
2018-09-06T07:44:21.854Z,75.19
2018-09-06T07:46:49.063Z,74.52
2018-09-06T07:49:16.186Z,73.44
2018-09-06T07:51:43.501Z,71.67
2018-09-06T07:54:10.597Z,72.71
2018-09-06T07:56:37.699Z,71.44
2018-09-06T07:59:06.992Z,70.79
2018-09-06T08:01:34.133Z,71.66
2018-09-06T08:04:01.621Z,70.90
2018-09-06T08:06:28.834Z,70.28
2018-09-06T08:08:55.943Z,69.65
2018-09-06T08:11:23.098Z,66.92
2018-09-06T08:13:50.244Z,66.94
2018-09-06T08:16:17.628Z,65.57
2018-09-06T08:18:44.745Z,65.80
2018-09-06T08:21:11.962Z,64.39
2018-09-06T08:23:39.163Z,64.97
2018-09-06T08:26:06.418Z,63.94
2018-09-06T08:28:40.242Z,63.64
2018-09-06T08:31:07.826Z,62.30
2018-09-06T08:33:35.141Z,61.24
2018-09-06T08:36:02.364Z,60.37
2018-09-06T08:38:29.495Z,59.79
2018-09-06T08:40:56.746Z,58.60
2018-09-06T08:43:23.934Z,60.01
2018-09-06T08:45:51.055Z,56.31
2018-09-06T08:48:18.283Z,55.74
2018-09-06T08:50:45.462Z,57.60
2018-09-06T08:53:12.736Z,56.73
2018-09-06T08:55:39.891Z,55.94
2018-09-06T08:58:07.102Z,55.02
2018-09-06T09:00:36.880Z,55.81
2018-09-06T09:03:04.794Z,55.97
2018-09-06T09:05:32.099Z,55.33
2018-09-06T09:07:59.569Z,56.60
2018-09-06T09:10:26.801Z,56.69
2018-09-06T09:12:54.043Z,53.91
2018-09-06T09:15:21.156Z,54.11
2018-09-06T09:17:48.409Z,52.43
2018-09-06T09:20:16.193Z,51.57
2018-09-06T09:22:43.428Z,51.70
2018-09-06T09:25:10.618Z,50.52
2018-09-06T09:27:37.836Z,50.82
2018-09-06T09:30:05.189Z,51.38
2018-09-06T09:32:34.253Z,49.53
2018-09-06T09:35:01.463Z,50.24
2018-09-06T09:37:28.712Z,49.88
2018-09-06T09:39:55.831Z,50.25
2018-09-06T09:42:23.180Z,50.16
2018-09-06T09:44:50.314Z,49.71
2018-09-06T09:49:44.317Z,48.47
2018-09-06T09:52:11.433Z,48.88
2018-09-06T09:54:38.688Z,46.65
2018-09-06T09:57:05.955Z,47.55
2018-09-06T09:59:33.096Z,47.73
2018-09-06T10:02:06.140Z,45.65
2018-09-06T10:04:39.253Z,44.56
2018-09-06T10:07:12.990Z,44.72
2018-09-06T10:09:40.126Z,45.19
2018-09-06T10:12:07.429Z,46.59
2018-09-06T10:14:34.607Z,48.76
2018-09-06T10:17:01.764Z,44.93
2018-09-06T10:19:29.293Z,47.21
2018-09-06T10:21:56.507Z,46.98
2018-09-06T10:24:23.680Z,45.41
2018-09-06T10:26:50.857Z,46.12
2018-09-06T10:29:18.046Z,46.36
2018-09-06T10:31:45.293Z,43.71
2018-09-06T10:34:12.398Z,44.45
2018-09-06T10:36:39.621Z,46.41
2018-09-06T10:39:08.095Z,42.85
2018-09-06T10:41:35.239Z,44.98
2018-09-06T10:44:02.616Z,41.99
2018-09-06T10:46:30.919Z,45.21
2018-09-06T10:48:58.330Z,44.92
2018-09-06T10:51:26.040Z,42.97
2018-09-06T10:53:53.363Z,42.22
2018-09-06T10:56:21.882Z,42.39
2018-09-06T10:58:49.384Z,43.70
2018-09-06T11:01:21.353Z,42.87
2018-09-06T11:03:49.749Z,42.39
2018-09-06T11:06:16.940Z,45.08
2018-09-06T11:08:44.224Z,47.14
2018-09-06T11:11:11.437Z,48.00
2018-09-06T11:13:38.676Z,45.32
2018-09-06T11:16:05.844Z,42.05
2018-09-06T11:18:32.999Z,42.67
2018-09-06T11:21:00.750Z,43.09
2018-09-06T11:23:28.124Z,44.45
2018-09-06T11:25:55.327Z,44.87
2018-09-06T11:28:22.534Z,43.81
2018-09-06T11:30:49.630Z,42.83
2018-09-06T11:33:16.984Z,41.36
2018-09-06T11:35:44.356Z,41.31
2018-09-06T11:38:11.537Z,42.65
2018-09-06T11:40:42.759Z,44.16
2018-09-06T11:43:09.915Z,43.98
2018-09-06T11:45:37.195Z,44.06
2018-09-06T11:48:05.924Z,42.71
2018-09-06T11:50:33.199Z,42.02
2018-09-06T11:53:00.321Z,41.53
2018-09-06T11:55:27.497Z,43.32
2018-09-06T11:57:54.756Z,44.38
2018-09-06T12:00:22.793Z,43.73
2018-09-06T12:02:50.034Z,44.56
2018-09-06T12:05:17.164Z,44.40
2018-09-06T12:07:44.300Z,46.61
2018-09-06T12:10:11.667Z,45.63
2018-09-06T12:12:38.852Z,43.28
2018-09-06T12:15:06.051Z,43.78
2018-09-06T12:17:33.265Z,43.61
2018-09-06T12:20:00.448Z,44.80
2018-09-06T12:22:27.693Z,43.76
2018-09-06T12:24:54.930Z,44.62
2018-09-06T12:27:22.169Z,46.09
2018-09-06T12:29:49.454Z,45.94
2018-09-06T12:32:16.733Z,44.92
2018-09-06T12:34:43.992Z,46.94
2018-09-06T12:37:13.166Z,42.34
2018-09-06T12:39:41.684Z,42.44
2018-09-06T12:42:08.848Z,43.46
2018-09-06T12:44:36.059Z,42.21
2018-09-06T12:47:03.509Z,42.89
2018-09-06T12:49:30.759Z,42.46
2018-09-06T12:51:57.939Z,43.52
2018-09-06T12:54:25.113Z,44.05
2018-09-06T12:56:52.267Z,44.38
2018-09-06T12:59:19.645Z,45.19
2018-09-06T13:01:46.829Z,42.76
2018-09-06T13:04:13.996Z,42.93
2018-09-06T13:06:41.189Z,42.79
2018-09-06T13:09:08.670Z,42.53
2018-09-06T13:11:36.457Z,44.34
2018-09-06T13:14:03.689Z,43.43
2018-09-06T13:16:30.920Z,42.38
2018-09-06T13:18:58.045Z,43.94
2018-09-06T13:21:25.175Z,41.76
2018-09-06T13:23:52.435Z,41.73
2018-09-06T13:26:19.582Z,41.94
2018-09-06T13:28:46.780Z,42.48
2018-09-06T13:31:14.004Z,41.11
2018-09-06T13:33:41.146Z,41.23
2018-09-06T13:36:08.639Z,40.98
2018-09-06T13:38:35.824Z,41.37
2018-09-06T13:41:03.027Z,41.87
2018-09-06T13:43:30.199Z,42.28
2018-09-06T13:45:57.332Z,42.72
2018-09-06T13:48:24.561Z,42.96
2018-09-06T13:50:51.695Z,42.90
2018-09-06T13:53:18.915Z,43.34
2018-09-06T13:55:46.087Z,44.64
2018-09-06T13:58:13.205Z,44.17
2018-09-06T14:00:40.486Z,46.28
2018-09-06T14:03:07.581Z,45.34
2018-09-06T14:05:34.755Z,43.87
2018-09-06T14:08:01.929Z,43.88
2018-09-06T14:10:29.045Z,47.62
2018-09-06T14:12:56.301Z,47.18
2018-09-06T14:15:23.609Z,46.23
2018-09-06T14:17:50.841Z,49.09
2018-09-06T14:20:17.991Z,41.89
2018-09-06T14:22:45.264Z,42.54
2018-09-06T14:25:12.528Z,43.67
2018-09-06T14:27:39.659Z,43.34
2018-09-06T14:30:06.884Z,44.82
2018-09-06T14:32:33.999Z,45.12
2018-09-06T14:35:01.107Z,45.84
2018-09-06T14:37:28.387Z,44.31
2018-09-06T14:39:55.661Z,44.03
2018-09-06T14:42:22.832Z,43.28
2018-09-06T14:44:50.036Z,43.69
2018-09-06T14:47:17.157Z,42.38
2018-09-06T14:49:44.439Z,42.51
2018-09-06T14:52:11.598Z,42.18
2018-09-06T14:54:38.740Z,43.38
2018-09-06T14:57:05.875Z,44.24
2018-09-06T14:59:33.065Z,44.24
2018-09-06T15:02:00.366Z,44.64
2018-09-06T15:04:27.480Z,43.45
2018-09-06T15:06:54.687Z,43.65
2018-09-06T15:09:21.805Z,44.13
2018-09-06T15:11:48.921Z,43.96
2018-09-06T15:14:16.223Z,44.68
2018-09-06T15:16:43.337Z,44.74
2018-09-06T15:19:10.573Z,45.28
2018-09-06T15:21:37.739Z,45.99
2018-09-06T15:24:04.839Z,46.06
2018-09-06T15:26:32.105Z,46.97
2018-09-06T15:28:59.276Z,47.64
2018-09-06T15:31:26.883Z,47.97
2018-09-06T15:33:53.976Z,48.13
2018-09-06T15:36:21.236Z,48.67
2018-09-06T15:38:48.513Z,49.79
2018-09-06T15:41:15.668Z,48.58
2018-09-06T15:43:42.860Z,48.72
2018-09-06T15:46:10.248Z,49.57
2018-09-06T15:48:37.369Z,49.67
2018-09-06T15:51:04.733Z,49.36
2018-09-06T15:53:31.888Z,48.90
2018-09-06T15:55:59.095Z,49.22
2018-09-06T15:58:26.273Z,49.51
2018-09-06T16:00:53.634Z,50.21
2018-09-06T16:03:20.875Z,50.37
2018-09-06T16:05:48.052Z,49.97
2018-09-06T16:08:15.240Z,50.74
2018-09-06T16:10:42.364Z,50.33
2018-09-06T16:13:09.533Z,51.10
2018-09-06T16:15:36.780Z,51.27
2018-09-06T16:18:03.998Z,51.85
2018-09-06T16:20:31.215Z,51.65
2018-09-06T16:22:58.345Z,52.17
2018-09-06T16:25:25.475Z,52.01
2018-09-06T16:27:52.750Z,52.52
2018-09-06T16:30:19.984Z,53.64
2018-09-06T16:32:47.099Z,53.97
2018-09-06T16:35:14.240Z,54.53
2018-09-06T16:37:41.346Z,53.14
2018-09-06T16:40:08.567Z,54.02
2018-09-06T16:42:35.749Z,54.17
2018-09-06T16:45:02.944Z,54.76
2018-09-06T16:47:30.060Z,54.75
2018-09-06T16:49:57.216Z,55.61
2018-09-06T16:52:24.525Z,55.42
2018-09-06T16:54:51.676Z,54.63
2018-09-06T16:57:18.890Z,54.97
2018-09-06T16:59:46.007Z,55.85
2018-09-06T17:02:13.114Z,55.51
2018-09-06T17:04:40.596Z,56.04
2018-09-06T17:07:07.711Z,55.70
2018-09-06T17:09:34.865Z,56.74
2018-09-06T17:12:02.026Z,56.19
2018-09-06T17:14:29.160Z,56.51
2018-09-06T17:16:56.391Z,56.44
2018-09-06T17:19:23.568Z,56.81
2018-09-06T17:21:50.793Z,56.83
2018-09-06T17:24:17.892Z,56.78
2018-09-06T17:26:45.079Z,56.88
2018-09-06T17:29:12.338Z,57.54
2018-09-06T17:31:39.462Z,58.33
2018-09-06T17:34:06.720Z,58.31
2018-09-06T17:36:33.954Z,57.85
2018-09-06T17:39:01.201Z,58.37
2018-09-06T17:41:28.425Z,59.39
2018-09-06T17:43:55.581Z,59.09
2018-09-06T17:46:22.748Z,60.31
2018-09-06T17:48:49.992Z,59.90
2018-09-06T17:51:17.124Z,59.55
2018-09-06T17:53:44.405Z,59.94
2018-09-06T17:56:11.727Z,60.04
2018-09-06T17:58:38.907Z,61.28
2018-09-06T18:01:22.175Z,60.55
2018-09-06T18:03:49.525Z,61.20
2018-09-06T18:06:16.645Z,61.79
2018-09-06T18:08:43.900Z,61.79
2018-09-06T18:11:11.340Z,62.49
2018-09-06T18:13:39.952Z,62.67
2018-09-06T18:16:09.119Z,62.69
2018-09-06T18:18:36.871Z,62.98
2018-09-06T18:21:04.129Z,63.04
2018-09-06T18:23:31.349Z,63.34
2018-09-06T18:25:58.481Z,62.88
2018-09-06T18:28:25.897Z,63.54
2018-09-06T18:30:53.113Z,63.45
2018-09-06T18:33:20.287Z,63.13
2018-09-06T18:35:48.177Z,64.15
2018-09-06T18:38:15.567Z,64.63
2018-09-06T18:40:44.433Z,63.52
2018-09-06T18:43:11.571Z,63.90
2018-09-06T18:45:38.845Z,64.25
2018-09-06T18:48:06.121Z,64.51
2018-09-06T18:50:33.227Z,65.39
2018-09-06T18:53:00.525Z,64.75
2018-09-06T18:55:27.765Z,64.48
2018-09-06T18:57:55.049Z,65.64
2018-09-06T19:00:22.225Z,64.73
2018-09-06T19:02:49.393Z,65.32
2018-09-06T19:05:16.635Z,65.19
2018-09-06T19:07:43.903Z,65.22
2018-09-06T19:10:11.185Z,64.95
2018-09-06T19:12:38.300Z,65.57
2018-09-06T19:15:05.666Z,65.05
2018-09-06T19:17:33.120Z,64.99
2018-09-06T19:20:00.254Z,65.05
2018-09-06T19:22:27.684Z,65.78
2018-09-06T19:24:54.817Z,65.02
2018-09-06T19:27:21.953Z,64.69
2018-09-06T19:29:49.357Z,64.72
2018-09-06T19:32:16.457Z,64.50
2018-09-06T19:34:43.676Z,64.23
2018-09-06T19:37:10.836Z,64.82
2018-09-06T19:39:37.913Z,64.76
2018-09-06T19:42:05.196Z,64.39
2018-09-06T19:44:32.392Z,63.99
2018-09-06T19:46:59.562Z,64.97
2018-09-06T19:49:26.670Z,65.17
2018-09-06T19:51:53.856Z,65.53
2018-09-06T19:54:21.233Z,65.21
2018-09-06T19:56:48.301Z,65.48
2018-09-06T19:59:16.408Z,65.89
2018-09-06T20:01:43.533Z,66.34
2018-09-06T20:04:10.690Z,66.36
2018-09-06T20:06:37.980Z,66.34
2018-09-06T20:09:06.268Z,65.91
2018-09-06T20:11:33.512Z,66.17
2018-09-06T20:14:00.656Z,66.31
2018-09-06T20:16:27.762Z,66.45
2018-09-06T20:18:54.985Z,67.13
2018-09-06T20:21:22.139Z,67.19
2018-09-06T20:23:49.326Z,67.22
2018-09-06T20:26:16.483Z,67.05
2018-09-06T20:28:43.616Z,66.99
2018-09-06T20:31:10.876Z,67.46
2018-09-06T20:33:38.047Z,67.73
2018-09-06T20:36:05.611Z,67.65
2018-09-06T20:38:32.729Z,67.47
2018-09-06T20:40:59.864Z,68.08
2018-09-06T20:43:27.180Z,67.65
2018-09-06T20:45:54.356Z,68.02
2018-09-06T20:48:21.522Z,68.07
2018-09-06T20:50:49.732Z,68.48
2018-09-06T20:53:16.862Z,68.95
2018-09-06T20:55:44.114Z,69.16
2018-09-06T20:58:11.277Z,68.96
2018-09-06T21:00:38.468Z,69.31
2018-09-06T21:03:05.745Z,70.07
2018-09-06T21:05:32.928Z,70.35
2018-09-06T21:08:00.212Z,71.12
2018-09-06T21:10:27.397Z,71.31
2018-09-06T21:12:54.632Z,70.99
2018-09-06T21:15:21.735Z,71.29
2018-09-06T21:17:48.862Z,71.92
2018-09-06T21:20:16.136Z,72.51
2018-09-06T21:22:43.252Z,73.16
2018-09-06T21:25:10.448Z,73.06
2018-09-06T21:27:37.604Z,72.88
2018-09-06T21:30:04.817Z,73.45
2018-09-06T21:32:32.098Z,74.13
2018-09-06T21:34:59.280Z,74.27
2018-09-06T21:37:26.459Z,74.36
2018-09-06T21:39:53.660Z,74.43
2018-09-06T21:42:20.838Z,75.03
2018-09-06T21:44:48.088Z,75.02
2018-09-06T21:47:15.207Z,75.54
2018-09-06T21:49:42.436Z,75.79
2018-09-06T21:52:09.548Z,76.29
2018-09-06T21:54:36.706Z,76.18
2018-09-06T21:57:04.831Z,76.40
2018-09-06T21:59:31.952Z,76.09
2018-09-06T22:01:59.156Z,76.44
2018-09-06T22:04:26.323Z,76.52
2018-09-06T22:06:53.460Z,76.74
2018-09-06T22:09:20.701Z,76.65
2018-09-06T22:11:48.453Z,76.63
2018-09-06T22:14:15.633Z,76.97
2018-09-06T22:16:42.807Z,77.51
2018-09-06T22:19:11.213Z,77.61
2018-09-06T22:21:39.380Z,77.53
2018-09-06T22:24:06.528Z,78.17
2018-09-06T22:26:33.790Z,78.50
2018-09-06T22:29:00.919Z,78.30
2018-09-06T22:31:28.136Z,78.87
2018-09-06T22:33:55.832Z,78.74
2018-09-06T22:36:23.376Z,79.16
2018-09-06T22:38:50.998Z,79.20
2018-09-06T22:41:18.198Z,79.67
2018-09-06T22:43:45.322Z,79.82
2018-09-06T22:46:12.771Z,80.24
2018-09-06T22:48:39.915Z,80.62
2018-09-06T22:51:07.105Z,80.47
2018-09-06T22:53:34.399Z,81.25
2018-09-06T22:56:02.039Z,81.23
2018-09-06T22:58:29.420Z,81.65
2018-09-06T23:00:56.575Z,81.79
2018-09-06T23:03:29.423Z,82.31
2018-09-06T23:06:01.109Z,82.22
2018-09-06T23:08:28.207Z,82.38
2018-09-06T23:10:55.483Z,82.68
2018-09-06T23:13:22.711Z,82.76
2018-09-06T23:15:51.040Z,83.13
2018-09-06T23:18:19.733Z,83.57
2018-09-06T23:20:47.890Z,83.62
2018-09-06T23:23:15.447Z,83.21
2018-09-06T23:25:42.612Z,83.82
2018-09-06T23:28:09.708Z,83.95
2018-09-06T23:30:36.817Z,84.29
2018-09-06T23:33:04.090Z,84.02
2018-09-06T23:35:31.287Z,84.47
2018-09-06T23:37:58.439Z,84.29
2018-09-06T23:40:25.604Z,84.51
2018-09-06T23:42:52.783Z,84.62
2018-09-06T23:45:19.958Z,84.94
2018-09-06T23:47:47.132Z,84.70
2018-09-06T23:50:14.228Z,85.47
2018-09-06T23:52:41.336Z,85.26
2018-09-06T23:55:08.502Z,85.46
2018-09-06T23:57:35.665Z,85.73
